Time;durP1;ratioP1;P1;durP2;ratioP2;P2;SDS_P1;SDS_P2;PMS_P1;PMS_P2;Temp;Humidity;BMP_temperature;BMP_pressure;BME280_temperature;BME280_humidity;BME280_pressure;Samples;Min_cycle;Max_cycle;Signal;HPM_P1;HPM_P2
2023/07/12 00:00:34;;;;;;;6.60;2.10;;;18.50;99.90;;;;;;5032013;28;20197;-73
2023/07/12 00:03:00;;;;;;;7.83;2.20;;;18.70;99.90;;;;;;5032291;28;20512;-73
2023/07/12 00:05:29;;;;;;;5.33;2.50;;;18.60;99.90;;;;;;5032217;28;20218;-73
2023/07/12 00:07:56;;;;;;;4.13;1.90;;;18.60;99.90;;;;;;5039929;28;20214;-73
2023/07/12 00:10:24;;;;;;;3.53;2.00;;;18.70;99.90;;;;;;5032623;28;20429;-73
2023/07/12 00:12:51;;;;;;;2.67;1.70;;;18.80;99.90;;;;;;5032972;28;20433;-73
2023/07/12 00:15:25;;;;;;;3.27;1.97;;;18.80;99.90;;;;;;5033161;28;20472;-73
2023/07/12 00:17:53;;;;;;;2.50;1.67;;;18.70;99.90;;;;;;5034543;28;20424;-73
2023/07/12 00:20:35;;;;;;;4.07;2.20;;;18.80;99.90;;;;;;5032992;28;20425;-73
2023/07/12 00:23:01;;;;;;;7.83;2.00;;;18.70;99.90;;;;;;5032012;28;20417;-73
2023/07/12 00:25:32;;;;;;;6.63;1.93;;;18.60;99.90;;;;;;5030126;28;20537;-73
2023/07/12 00:27:59;;;;;;;3.20;1.63;;;18.60;99.90;;;;;;5031144;28;20420;-73
2023/07/12 00:30:34;;;;;;;2.57;1.60;;;18.60;99.90;;;;;;5030725;28;20436;-73
2023/07/12 00:33:03;;;;;;;2.00;1.33;;;18.60;99.90;;;;;;5019716;28;20455;-73
2023/07/12 00:35:30;;;;;;;3.77;2.10;;;18.60;99.90;;;;;;5030652;28;20480;-73
2023/07/12 00:37:58;;;;;;;3.10;1.57;;;18.60;99.90;;;;;;5031234;28;20521;-73
2023/07/12 00:40:48;;;;;;;2.50;1.10;;;18.60;99.90;;;;;;5031731;28;20510;-73
2023/07/12 00:43:17;;;;;;;2.33;1.47;;;18.60;99.90;;;;;;5031092;28;20883;-73
2023/07/12 00:45:45;;;;;;;4.23;1.87;;;18.60;99.90;;;;;;5031450;28;20775;-73
2023/07/12 00:48:12;;;;;;;3.77;1.60;;;18.60;99.90;;;;;;5031815;28;20500;-73
2023/07/12 00:50:39;;;;;;;3.13;1.50;;;18.60;99.90;;;;;;5035423;28;20684;-74
2023/07/12 00:53:05;;;;;;;4.43;1.00;;;18.60;99.90;;;;;;5036979;28;20425;-73
2023/07/12 00:56:10;;;;;;;2.60;1.30;;;18.60;99.90;;;;;;5031358;28;20508;-73
2023/07/12 00:58:43;;;;;;;3.87;1.30;;;18.60;99.90;;;;;;5029032;28;20441;-73
2023/07/12 01:01:10;;;;;;;4.60;2.03;;;18.60;99.90;;;;;;5030017;28;20507;-74
2023/07/12 01:03:38;;;;;;;4.30;1.60;;;18.60;99.90;;;;;;5018037;28;20449;-74
2023/07/12 01:06:08;;;;;;;3.53;1.80;;;18.60;99.90;;;;;;5030934;28;20417;-74
2023/07/12 01:08:35;;;;;;;4.30;1.50;;;18.70;99.90;;;;;;5022745;28;20414;-74
2023/07/12 01:11:03;;;;;;;2.90;2.00;;;18.70;99.90;;;;;;5030910;28;20492;-74
2023/07/12 01:13:30;;;;;;;2.97;1.60;;;18.70;99.90;;;;;;5023818;28;20466;-74
2023/07/12 01:15:59;;;;;;;3.23;1.53;;;18.60;99.90;;;;;;5012219;28;20425;-73
2023/07/12 01:18:24;;;;;;;2.83;1.60;;;18.60;99.90;;;;;;5014045;28;20422;-74
2023/07/12 01:21:04;;;;;;;5.60;1.73;;;18.50;99.90;;;;;;5024926;28;20476;-75
2023/07/12 01:23:30;;;;;;;3.50;1.40;;;18.50;99.90;;;;;;5021726;28;20229;-75
2023/07/12 01:26:25;;;;;;;10.20;1.40;;;18.50;99.90;;;;;;5027949;28;20433;-75
2023/07/12 01:28:55;;;;;;;2.40;1.23;;;18.70;99.90;;;;;;5025283;28;20409;-75
2023/07/12 01:31:21;;;;;;;3.90;2.10;;;18.60;99.90;;;;;;5030717;28;20798;-76
2023/07/12 01:33:47;;;;;;;3.27;1.40;;;18.70;99.90;;;;;;5031002;28;20975;-76
2023/07/12 01:36:14;;;;;;;2.30;1.27;;;18.60;99.90;;;;;;5024938;28;20418;-76
2023/07/12 01:38:40;;;;;;;3.97;1.33;;;18.60;99.90;;;;;;5030952;28;20184;-76
2023/07/12 01:41:05;;;;;;;3.67;2.10;;;18.70;99.90;;;;;;5030680;28;20409;-76
2023/07/12 01:43:31;;;;;;;3.17;1.80;;;18.70;99.90;;;;;;5031118;28;20637;-76
2023/07/12 01:45:57;;;;;;;3.70;1.83;;;18.60;99.90;;;;;;5030441;28;20192;-76
2023/07/12 01:48:23;;;;;;;3.53;1.80;;;18.50;99.90;;;;;;5030804;28;20515;-76
2023/07/12 01:50:48;;;;;;;6.97;2.33;;;18.50;99.90;;;;;;5030233;28;20220;-75
2023/07/12 01:53:14;;;;;;;4.37;1.90;;;18.40;99.90;;;;;;5030275;28;20206;-75
2023/07/12 01:55:42;;;;;;;3.27;1.63;;;18.40;99.90;;;;;;5031062;28;20725;-75
2023/07/12 01:58:09;;;;;;;1.93;1.17;;;18.40;99.90;;;;;;5029486;28;20581;-76
2023/07/12 02:00:35;;;;;;;3.73;2.10;;;18.40;99.90;;;;;;5018778;28;20425;-76
2023/07/12 02:03:00;;;;;;;5.80;1.60;;;18.40;99.90;;;;;;5030750;28;20708;-76
2023/07/12 02:05:27;;;;;;;5.00;2.10;;;18.30;99.90;;;;;;5022638;28;20433;-76
2023/07/12 02:07:56;;;;;;;3.57;1.93;;;18.30;99.90;;;;;;5026156;28;20189;-76
2023/07/12 02:10:23;;;;;;;5.00;1.57;;;18.30;99.90;;;;;;5030810;28;20426;-76
2023/07/12 02:12:49;;;;;;;3.20;1.63;;;18.20;99.90;;;;;;5030368;28;20421;-76
2023/07/12 02:15:15;;;;;;;3.20;1.73;;;18.20;99.90;;;;;;5030386;28;20464;-75
2023/07/12 02:17:41;;;;;;;1.97;1.30;;;18.30;99.90;;;;;;5030543;28;20822;-75
2023/07/12 02:20:08;;;;;;;5.10;2.03;;;18.30;99.90;;;;;;5030518;28;20704;-75
2023/07/12 02:22:35;;;;;;;10.93;2.53;;;18.30;99.90;;;;;;5027516;28;20433;-76
2023/07/12 02:25:01;;;;;;;2.80;1.73;;;18.30;99.90;;;;;;5019711;28;20421;-76
2023/07/12 02:27:27;;;;;;;3.40;1.60;;;18.30;99.90;;;;;;5024025;28;21055;-76
2023/07/12 02:29:53;;;;;;;12.17;2.37;;;18.30;99.90;;;;;;5027838;28;20635;-76
2023/07/12 02:32:20;;;;;;;3.50;1.97;;;18.30;99.90;;;;;;5029641;28;20202;-76
2023/07/12 02:34:47;;;;;;;4.23;2.10;;;18.40;99.90;;;;;;5030444;28;20253;-76
2023/07/12 02:37:13;;;;;;;5.30;1.90;;;18.30;99.90;;;;;;5029629;28;20439;-76
2023/07/12 02:39:39;;;;;;;7.53;2.07;;;18.30;99.90;;;;;;5030791;28;20801;-76
2023/07/12 02:42:05;;;;;;;2.90;1.80;;;18.40;99.90;;;;;;5029867;28;20500;-76
2023/07/12 02:44:30;;;;;;;3.03;1.30;;;18.40;99.90;;;;;;5030495;28;20201;-76
2023/07/12 02:46:56;;;;;;;5.50;1.80;;;18.30;99.90;;;;;;5030362;28;20292;-76
2023/07/12 02:49:22;;;;;;;4.50;2.50;;;18.30;99.90;;;;;;5030788;28;20837;-76
2023/07/12 02:51:48;;;;;;;6.93;2.20;;;18.30;99.90;;;;;;5028982;28;20218;-76
2023/07/12 02:54:13;;;;;;;5.90;1.70;;;18.30;99.90;;;;;;5030399;28;21044;-76
2023/07/12 02:56:39;;;;;;;3.53;1.83;;;18.30;99.90;;;;;;5030141;28;20228;-76
2023/07/12 02:59:05;;;;;;;2.80;1.77;;;18.30;99.90;;;;;;5033398;28;20647;-76
2023/07/12 03:01:31;;;;;;;2.77;1.60;;;18.30;99.90;;;;;;5033167;28;20182;-76
2023/07/12 03:03:56;;;;;;;5.80;2.80;;;18.20;99.90;;;;;;5033575;28;20278;-77
2023/07/12 03:06:22;;;;;;;2.37;1.37;;;18.20;99.90;;;;;;5032681;28;20217;-76
2023/07/12 03:08:47;;;;;;;5.63;2.20;;;18.30;99.90;;;;;;5033230;28;20193;-77
2023/07/12 03:11:14;;;;;;;3.23;1.80;;;18.30;99.90;;;;;;5033109;28;20651;-77
2023/07/12 03:13:40;;;;;;;6.80;2.50;;;18.30;99.90;;;;;;5033198;28;20206;-77
2023/07/12 03:16:07;;;;;;;2.30;1.60;;;18.30;99.90;;;;;;5033431;28;21050;-77
2023/07/12 03:18:34;;;;;;;3.93;2.13;;;18.30;99.90;;;;;;5033200;28;20285;-77
2023/07/12 03:21:04;;;;;;;4.07;1.97;;;18.30;99.90;;;;;;5032579;28;20503;-77
2023/07/12 03:23:31;;;;;;;4.97;2.03;;;18.30;99.90;;;;;;5030745;28;20433;-77
2023/07/12 03:25:57;;;;;;;10.60;2.10;;;18.30;99.90;;;;;;5029707;28;20516;-77
2023/07/12 03:28:23;;;;;;;4.10;2.07;;;18.30;99.90;;;;;;5029033;28;20425;-77
2023/07/12 03:31:11;;;;;;;4.37;2.43;;;18.40;99.90;;;;;;5032805;28;20421;-77
2023/07/12 03:33:37;;;;;;;4.60;2.30;;;18.40;99.90;;;;;;5033044;28;20217;-76
2023/07/12 03:36:03;;;;;;;5.10;2.07;;;18.30;99.90;;;;;;5032784;28;20417;-77
2023/07/12 03:38:30;;;;;;;3.87;2.13;;;18.40;99.90;;;;;;5027383;28;20430;-76
2023/07/12 03:40:58;;;;;;;4.10;2.40;;;18.40;99.90;;;;;;5025980;28;20425;-77
2023/07/12 03:43:24;;;;;;;9.50;2.27;;;18.40;99.90;;;;;;5029138;28;20516;-77
2023/07/12 03:45:50;;;;;;;8.63;2.03;;;18.30;99.90;;;;;;5032869;28;20552;-77
2023/07/12 03:48:16;;;;;;;4.17;2.30;;;18.40;99.90;;;;;;5032469;28;20421;-76
2023/07/12 03:50:43;;;;;;;6.03;2.53;;;18.40;99.90;;;;;;5031917;28;20406;-76
2023/07/12 03:53:09;;;;;;;5.07;2.57;;;18.40;99.90;;;;;;5032256;28;20198;-76
2023/07/12 03:55:42;;;;;;;12.00;2.63;;;18.30;99.90;;;;;;5032227;28;20476;-77
2023/07/12 03:58:10;;;;;;;8.43;2.60;;;18.40;99.90;;;;;;5032257;28;20461;-74
2023/07/12 04:00:39;;;;;;;4.97;2.10;;;18.40;99.90;;;;;;5032027;28;20444;-74
2023/07/12 04:03:05;;;;;;;4.93;1.63;;;18.40;99.90;;;;;;5032189;28;20456;-74
2023/07/12 04:05:35;;;;;;;16.63;1.80;;;18.40;99.90;;;;;;5031593;28;20420;-74
2023/07/12 04:08:00;;;;;;;5.70;2.50;;;18.40;99.90;;;;;;5034960;28;20623;-74
2023/07/12 04:10:27;;;;;;;8.30;2.40;;;18.50;99.90;;;;;;5032324;28;20425;-74
2023/07/12 04:12:52;;;;;;;4.60;1.83;;;18.60;99.90;;;;;;5031926;28;20274;-74
2023/07/12 04:15:18;;;;;;;3.33;2.27;;;18.60;99.90;;;;;;5032225;28;20479;-74
2023/07/12 04:17:43;;;;;;;3.43;2.33;;;18.60;99.90;;;;;;5032500;28;20393;-74
2023/07/12 04:20:10;;;;;;;3.27;1.40;;;18.70;99.90;;;;;;5031422;28;20265;-74
2023/07/12 04:22:35;;;;;;;3.10;1.90;;;18.80;99.90;;;;;;5031329;28;20178;-75
2023/07/12 04:25:02;;;;;;;10.70;2.07;;;18.80;99.90;;;;;;5032412;28;20705;-75
2023/07/12 04:27:28;;;;;;;5.60;2.40;;;18.80;99.90;;;;;;5030905;28;20194;-75
2023/07/12 04:29:53;;;;;;;3.73;2.23;;;18.80;99.90;;;;;;5031879;28;20421;-75
2023/07/12 04:32:19;;;;;;;5.33;2.33;;;18.80;99.90;;;;;;5031363;28;20252;-75
2023/07/12 04:34:46;;;;;;;3.67;1.43;;;18.90;99.90;;;;;;5031914;28;20667;-75
2023/07/12 04:37:13;;;;;;;5.63;1.40;;;18.80;99.90;;;;;;5019325;28;20195;-75
2023/07/12 04:39:38;;;;;;;9.07;2.80;;;18.80;99.90;;;;;;5026505;28;20428;-75
2023/07/12 04:42:05;;;;;;;3.37;1.80;;;18.90;99.90;;;;;;5028717;28;20433;-75
2023/07/12 04:44:30;;;;;;;5.40;2.63;;;18.90;99.90;;;;;;5032099;28;20241;-76
2023/07/12 04:46:56;;;;;;;7.13;2.30;;;18.90;99.90;;;;;;5031352;28;20890;-76
2023/07/12 04:49:21;;;;;;;8.13;2.20;;;19.00;99.90;;;;;;5029706;28;20193;-76
2023/07/12 04:51:49;;;;;;;4.30;2.37;;;19.00;99.90;;;;;;5030070;28;21001;-76
2023/07/12 04:54:14;;;;;;;8.90;3.40;;;19.10;99.90;;;;;;5032135;28;20651;-76
2023/07/12 04:56:40;;;;;;;7.07;2.70;;;19.10;99.90;;;;;;5031943;28;20425;-76
2023/07/12 04:59:06;;;;;;;3.30;2.03;;;19.10;99.90;;;;;;5032385;28;20190;-76
2023/07/12 05:01:32;;;;;;;7.03;2.40;;;19.10;99.90;;;;;;5030594;28;20550;-76
2023/07/12 05:03:59;;;;;;;2.80;2.03;;;19.10;99.90;;;;;;5031967;28;20198;-76
2023/07/12 05:06:24;;;;;;;3.80;2.20;;;19.20;99.90;;;;;;5032675;28;20287;-76
2023/07/12 05:08:51;;;;;;;5.30;2.17;;;19.20;99.90;;;;;;5036060;28;20417;-76
2023/07/12 05:11:17;;;;;;;4.00;2.57;;;19.20;99.90;;;;;;5035218;28;20190;-76
2023/07/12 05:13:42;;;;;;;16.97;2.10;;;19.30;99.90;;;;;;5035141;28;20486;-77
2023/07/12 05:16:11;;;;;;;4.30;2.60;;;19.30;99.90;;;;;;5034293;28;20187;-76
2023/07/12 05:18:36;;;;;;;4.20;2.00;;;19.30;99.90;;;;;;5033937;28;20605;-77
2023/07/12 05:21:02;;;;;;;5.07;2.07;;;19.30;99.90;;;;;;5025494;28;20429;-77
2023/07/12 05:23:28;;;;;;;9.20;2.63;;;19.40;99.90;;;;;;5033120;28;20190;-76
2023/07/12 05:25:54;;;;;;;6.20;2.27;;;19.40;99.90;;;;;;5031826;28;20602;-76
2023/07/12 05:28:20;;;;;;;5.63;2.63;;;19.40;99.90;;;;;;5030839;28;20182;-76
2023/07/12 05:30:46;;;;;;;5.03;2.67;;;19.40;99.90;;;;;;5034548;28;20434;-76
2023/07/12 05:33:12;;;;;;;12.73;1.90;;;19.40;99.90;;;;;;5037107;28;20448;-76
2023/07/12 05:35:38;;;;;;;7.27;3.50;;;19.40;99.90;;;;;;5038972;28;20217;-76
2023/07/12 05:38:04;;;;;;;6.17;2.57;;;19.50;99.90;;;;;;5039704;28;20188;-76
2023/07/12 05:40:32;;;;;;;12.10;2.50;;;19.50;99.90;;;;;;5042178;28;20197;-76
2023/07/12 05:42:59;;;;;;;12.03;2.37;;;19.50;99.90;;;;;;5043379;28;20191;-77
2023/07/12 05:45:25;;;;;;;4.23;2.00;;;19.50;99.90;;;;;;5044904;28;20429;-77
2023/07/12 05:47:51;;;;;;;7.77;3.73;;;19.50;99.90;;;;;;5044960;28;20428;-76
2023/07/12 05:50:19;;;;;;;3.87;2.30;;;19.50;99.90;;;;;;5026775;28;20441;-77
2023/07/12 05:52:45;;;;;;;12.90;2.70;;;19.60;99.90;;;;;;5023786;28;20186;-77
2023/07/12 05:55:13;;;;;;;7.37;3.10;;;19.70;99.90;;;;;;5027486;28;21003;-77
2023/07/12 05:57:39;;;;;;;6.23;2.33;;;19.70;99.90;;;;;;5030832;28;20499;-76
2023/07/12 06:00:08;;;;;;;9.17;2.60;;;19.70;99.90;;;;;;5030468;28;20483;-76
2023/07/12 06:02:33;;;;;;;13.30;2.63;;;19.90;99.90;;;;;;5029990;28;20224;-76
2023/07/12 06:04:59;;;;;;;18.70;3.60;;;20.00;99.90;;;;;;5030486;28;20901;-76
2023/07/12 06:07:24;;;;;;;5.80;2.10;;;20.10;99.90;;;;;;5033267;28;20194;-76
2023/07/12 06:09:50;;;;;;;5.63;2.97;;;20.10;99.90;;;;;;5030430;28;20194;-77
2023/07/12 06:12:15;;;;;;;8.13;2.10;;;20.20;99.90;;;;;;5031095;28;20182;-76
2023/07/12 06:14:41;;;;;;;4.60;2.83;;;20.10;99.90;;;;;;5031820;28;20256;-76
2023/07/12 06:17:07;;;;;;;7.23;2.30;;;20.20;99.90;;;;;;5030318;28;20261;-76
2023/07/12 06:19:33;;;;;;;14.60;3.20;;;20.30;99.90;;;;;;5030824;28;20183;-77
2023/07/12 06:21:58;;;;;;;5.23;2.87;;;20.30;99.90;;;;;;5022731;28;20187;-76
2023/07/12 06:24:24;;;;;;;7.93;3.30;;;20.40;99.90;;;;;;5030371;28;20198;-76
2023/07/12 06:26:50;;;;;;;7.77;2.47;;;20.50;99.90;;;;;;5024603;28;20193;-76
2023/07/12 06:29:15;;;;;;;7.20;3.60;;;20.60;99.90;;;;;;5030603;28;20187;-76
2023/07/12 06:31:44;;;;;;;18.33;3.73;;;20.70;99.90;;;;;;5030683;28;20616;-77
2023/07/12 06:34:10;;;;;;;3.83;2.67;;;20.80;99.90;;;;;;5034085;28;20218;-76
2023/07/12 06:36:36;;;;;;;3.40;2.27;;;21.00;99.90;;;;;;5034440;28;20446;-76
2023/07/12 06:39:03;;;;;;;4.17;2.60;;;21.10;99.90;;;;;;5034787;28;20925;-77
2023/07/12 06:41:29;;;;;;;6.07;2.50;;;21.30;99.90;;;;;;5034604;28;20240;-77
2023/07/12 06:43:54;;;;;;;3.40;2.23;;;21.30;99.90;;;;;;5033769;28;21127;-76
2023/07/12 06:46:20;;;;;;;5.57;3.17;;;21.30;99.90;;;;;;5034148;28;20187;-77
2023/07/12 06:48:46;;;;;;;6.27;3.33;;;21.40;99.90;;;;;;5029854;28;20933;-76
2023/07/12 06:51:11;;;;;;;4.27;2.67;;;21.50;99.90;;;;;;5024531;28;20182;-77
2023/07/12 06:53:37;;;;;;;10.63;2.83;;;21.60;99.90;;;;;;5033474;28;20537;-77
2023/07/12 06:56:03;;;;;;;7.67;2.77;;;21.80;99.90;;;;;;5030688;28;20643;-76
2023/07/12 06:58:28;;;;;;;4.97;2.80;;;21.90;99.90;;;;;;5033681;28;20277;-76
2023/07/12 07:00:54;;;;;;;7.63;3.03;;;21.90;99.90;;;;;;5033088;28;20194;-76
2023/07/12 07:03:20;;;;;;;6.10;2.17;;;22.00;99.90;;;;;;5033642;28;20187;-76
2023/07/12 07:05:46;;;;;;;5.73;2.97;;;22.00;99.90;;;;;;5033868;28;20662;-76
2023/07/12 07:08:14;;;;;;;8.07;3.27;;;22.00;99.90;;;;;;5030589;28;20209;-76
2023/07/12 07:10:41;;;;;;;14.53;3.40;;;21.80;99.90;;;;;;5033294;28;20503;-76
2023/07/12 07:13:07;;;;;;;5.90;3.07;;;21.80;99.90;;;;;;5031548;28;20469;-76
2023/07/12 07:15:32;;;;;;;7.67;3.47;;;21.90;99.90;;;;;;5033155;28;20528;-76
2023/07/12 07:17:58;;;;;;;5.73;3.30;;;21.90;99.90;;;;;;5033527;28;20810;-76
2023/07/12 07:20:24;;;;;;;7.27;3.00;;;22.10;99.90;;;;;;5032074;28;20187;-76
2023/07/12 07:22:50;;;;;;;4.50;3.07;;;22.20;99.90;;;;;;5031870;28;20178;-76
2023/07/12 07:25:16;;;;;;;6.30;2.97;;;22.20;99.90;;;;;;5033000;28;20194;-77
2023/07/12 07:27:41;;;;;;;5.07;2.77;;;22.40;99.90;;;;;;5032229;28;20543;-75
2023/07/12 07:30:07;;;;;;;6.40;3.03;;;22.40;99.90;;;;;;5033140;28;20431;-76
2023/07/12 07:32:33;;;;;;;8.77;4.30;;;22.60;99.90;;;;;;5031655;28;20201;-76
2023/07/12 07:34:59;;;;;;;6.40;3.57;;;22.70;99.90;;;;;;5033200;28;20206;-76
2023/07/12 07:37:25;;;;;;;6.60;3.40;;;22.70;99.90;;;;;;5031827;28;20182;-77
2023/07/12 07:39:50;;;;;;;5.60;3.20;;;23.10;99.90;;;;;;5033105;28;20567;-77
2023/07/12 07:42:16;;;;;;;13.93;3.47;;;23.30;99.90;;;;;;5032199;28;20190;-76
2023/07/12 07:44:41;;;;;;;6.70;2.80;;;23.50;99.90;;;;;;5032408;28;20255;-76
2023/07/12 07:47:08;;;;;;;7.97;3.00;;;24.10;99.90;;;;;;5032959;28;20194;-77
2023/07/12 07:49:34;;;;;;;9.40;2.97;;;24.70;99.90;;;;;;5032859;28;20181;-77
2023/07/12 07:52:02;;;;;;;4.27;2.70;;;25.40;99.90;;;;;;5031378;28;20427;-77
2023/07/12 07:54:28;;;;;;;6.00;3.20;;;26.00;99.90;;;;;;5032531;28;20237;-77
2023/07/12 07:56:53;;;;;;;7.27;2.57;;;26.40;99.90;;;;;;5032361;28;20213;-76
2023/07/12 07:59:19;;;;;;;5.90;2.37;;;26.40;99.90;;;;;;5032478;28;20186;-76
2023/07/12 08:01:44;;;;;;;6.13;1.93;;;26.90;99.50;;;;;;5035757;28;20185;-75
2023/07/12 08:04:10;;;;;;;4.30;2.63;;;26.90;99.60;;;;;;5042165;28;20690;-76
2023/07/12 08:06:38;;;;;;;6.20;2.38;;;27.00;99.90;;;;;;5029583;28;20185;-76
2023/07/12 08:09:05;;;;;;;3.25;1.88;;;27.40;99.90;;;;;;5024222;28;20197;-77
2023/07/12 08:11:31;;;;;;;3.17;1.58;;;27.80;98.40;;;;;;5030130;28;20439;-77
2023/07/12 08:13:57;;;;;;;9.13;2.30;;;28.80;95.60;;;;;;5030711;28;20216;-77
2023/07/12 08:16:27;;;;;;;3.97;2.17;;;28.80;96.40;;;;;;5030639;28;20260;-77
2023/07/12 08:18:53;;;;;;;4.63;2.28;;;28.40;96.20;;;;;;5022232;28;20283;-77
2023/07/12 08:21:19;;;;;;;3.45;1.85;;;28.60;96.20;;;;;;5033335;28;20263;-77
2023/07/12 08:23:45;;;;;;;3.85;2.20;;;29.00;94.70;;;;;;5029824;28;20194;-75
2023/07/12 08:26:11;;;;;;;3.58;2.53;;;28.60;94.90;;;;;;5030801;28;20198;-76
2023/07/12 08:28:37;;;;;;;7.00;2.03;;;28.20;94.30;;;;;;5037912;28;20269;-76
2023/07/12 08:31:03;;;;;;;2.45;1.40;;;28.00;95.30;;;;;;5032738;28;20552;-73
2023/07/12 08:33:28;;;;;;;3.50;1.55;;;28.50;93.30;;;;;;5030445;28;20209;-73
2023/07/12 08:35:54;;;;;;;3.08;1.65;;;28.20;92.80;;;;;;5031963;28;20265;-74
2023/07/12 08:38:19;;;;;;;4.82;1.60;;;28.80;92.40;;;;;;5031302;28;20177;-73
2023/07/12 08:40:50;;;;;;;3.10;1.60;;;29.10;91.80;;;;;;5030282;28;20220;-73
2023/07/12 08:43:21;;;;;;;3.58;1.80;;;29.20;92.00;;;;;;5031306;28;20260;-73
2023/07/12 08:45:49;;;;;;;4.90;1.90;;;29.00;91.00;;;;;;5031473;28;20186;-73
2023/07/12 08:48:18;;;;;;;3.03;1.50;;;29.40;89.60;;;;;;5031380;28;20265;-73
2023/07/12 08:50:46;;;;;;;3.85;1.50;;;29.60;89.50;;;;;;5030929;28;20478;-72
2023/07/12 08:53:19;;;;;;;3.67;1.30;;;30.20;87.80;;;;;;5027336;28;20306;-75
2023/07/12 08:55:45;;;;;;;2.58;1.40;;;30.10;83.40;;;;;;5024775;28;20689;-74
2023/07/12 08:58:24;;;;;;;5.53;1.92;;;29.90;86.90;;;;;;5029632;28;20210;-74
2023/07/12 09:01:12;;;;;;;7.63;1.90;;;29.60;86.20;;;;;;5026166;28;20272;-74
2023/07/12 09:03:38;;;;;;;3.33;1.40;;;29.40;85.80;;;;;;5029092;28;20181;-75
2023/07/12 09:06:10;;;;;;;2.28;1.40;;;29.90;82.40;;;;;;5029283;28;20186;-73
2023/07/12 09:08:39;;;;;;;4.22;2.17;;;29.10;89.00;;;;;;5022258;28;20178;-75
2023/07/12 09:11:18;;;;;;;3.33;1.77;;;29.60;89.00;;;;;;5029268;28;20185;-75
2023/07/12 09:13:46;;;;;;;3.42;1.90;;;29.70;86.50;;;;;;5019132;28;20189;-75
2023/07/12 09:16:21;;;;;;;3.15;2.00;;;29.90;86.40;;;;;;5029092;28;20211;-74
2023/07/12 09:18:48;;;;;;;8.05;2.00;;;29.80;87.70;;;;;;5030098;28;20224;-74
2023/07/12 09:21:19;;;;;;;5.90;1.73;;;29.80;84.50;;;;;;5028780;28;20634;-75
2023/07/12 09:23:45;;;;;;;15.93;1.88;;;29.50;84.50;;;;;;5029803;28;20202;-74
2023/07/12 09:26:27;;;;;;;5.35;1.60;;;30.00;85.50;;;;;;5025693;28;20178;-75
2023/07/12 09:28:58;;;;;;;3.17;1.98;;;29.90;80.30;;;;;;5030728;28;20180;-74
2023/07/12 09:31:28;;;;;;;2.92;1.80;;;29.30;84.20;;;;;;5029106;28;20235;-74
2023/07/12 09:34:00;;;;;;;8.02;1.60;;;29.60;82.40;;;;;;5029551;28;20218;-74
2023/07/12 09:36:26;;;;;;;2.30;1.17;;;29.40;80.90;;;;;;5029431;28;20182;-75
2023/07/12 09:38:56;;;;;;;3.33;1.65;;;29.60;80.30;;;;;;5026279;28;20170;-75
2023/07/12 09:41:24;;;;;;;2.97;1.17;;;30.00;77.30;;;;;;5027154;28;20845;-75
2023/07/12 09:44:00;;;;;;;3.97;1.25;;;29.40;78.00;;;;;;5026654;28;20190;-76
2023/07/12 09:46:37;;;;;;;2.60;1.40;;;29.70;78.20;;;;;;5030031;28;20221;-76
2023/07/12 09:49:11;;;;;;;3.05;1.35;;;29.50;77.80;;;;;;5028319;28;20556;-75
2023/07/12 09:52:01;;;;;;;2.63;1.35;;;29.40;78.90;;;;;;5028791;28;20778;-76
2023/07/12 09:54:35;;;;;;;3.13;1.75;;;29.40;80.00;;;;;;5029144;28;20292;-76
2023/07/12 09:57:15;;;;;;;2.22;1.25;;;29.60;76.70;;;;;;5029010;28;20215;-76
2023/07/12 10:00:07;;;;;;;24.35;1.52;;;29.00;76.90;;;;;;5029088;28;20630;-75
2023/07/12 10:02:57;;;;;;;7.05;1.20;;;28.10;78.70;;;;;;5029326;28;20188;-76
2023/07/12 10:05:23;;;;;;;3.53;1.55;;;27.50;81.80;;;;;;5018416;28;20635;-76
2023/07/12 10:08:04;;;;;;;3.20;1.50;;;27.40;83.40;;;;;;5033721;28;20271;-76
2023/07/12 10:10:42;;;;;;;17.33;2.10;;;27.70;83.70;;;;;;5035359;28;20331;-76
2023/07/12 10:13:48;;;;;;;4.00;1.58;;;27.60;82.60;;;;;;5026240;28;20194;-72
2023/07/12 10:16:17;;;;;;;5.45;1.67;;;28.30;82.00;;;;;;5033431;28;20196;-73
2023/07/12 10:18:44;;;;;;;3.15;1.42;;;28.10;83.30;;;;;;5033927;28;20644;-73
2023/07/12 10:21:17;;;;;;;1.90;1.10;;;28.50;81.50;;;;;;5032328;28;20182;-72
2023/07/12 10:23:48;;;;;;;9.65;2.05;;;28.80;80.60;;;;;;5034085;28;20527;-72
2023/07/12 10:26:15;;;;;;;3.92;2.10;;;29.20;79.20;;;;;;5030814;28;20179;-72
2023/07/12 10:28:43;;;;;;;5.28;1.83;;;28.80;79.90;;;;;;5032090;28;20174;-72
2023/07/12 10:31:23;;;;;;;8.82;2.03;;;28.50;81.20;;;;;;5033083;28;20228;-73
2023/07/12 10:33:54;;;;;;;3.17;1.65;;;28.30;81.90;;;;;;5033483;28;20206;-72
2023/07/12 10:36:24;;;;;;;5.15;1.67;;;28.40;82.50;;;;;;5032948;28;20614;-72
2023/07/12 10:38:51;;;;;;;4.60;2.20;;;28.40;81.20;;;;;;5033470;28;20193;-72
2023/07/12 10:41:31;;;;;;;3.70;1.90;;;28.40;82.60;;;;;;5033390;28;20637;-73
2023/07/12 10:44:05;;;;;;;4.30;1.60;;;28.40;79.50;;;;;;5033437;28;20569;-73
2023/07/12 10:46:38;;;;;;;5.60;2.20;;;28.20;81.50;;;;;;5034100;28;20181;-72
2023/07/12 10:49:14;;;;;;;2.73;1.43;;;28.00;81.30;;;;;;5020286;28;20197;-74
2023/07/12 10:51:42;;;;;;;4.17;2.13;;;27.80;81.70;;;;;;5027918;28;20180;-74
2023/07/12 10:54:30;;;;;;;6.17;2.53;;;28.00;82.00;;;;;;5034111;28;20600;-73
2023/07/12 10:57:03;;;;;;;3.60;1.63;;;28.10;83.10;;;;;;5034089;28;20192;-74
2023/07/12 10:59:32;;;;;;;4.33;2.10;;;28.30;81.40;;;;;;5029338;28;20190;-76
2023/07/12 11:02:03;;;;;;;4.90;2.10;;;28.10;82.50;;;;;;5030458;28;20566;-74
2023/07/12 11:04:32;;;;;;;3.83;2.27;;;28.10;80.70;;;;;;5033311;28;20181;-74
2023/07/12 11:07:09;;;;;;;6.30;2.20;;;28.20;81.50;;;;;;5027826;28;20182;-73
2023/07/12 11:09:44;;;;;;;4.97;2.60;;;28.20;81.10;;;;;;5032130;28;20259;-74
2023/07/12 11:12:14;;;;;;;5.67;2.67;;;28.40;81.10;;;;;;5033467;28;20568;-72
2023/07/12 11:14:41;;;;;;;2.37;1.63;;;28.60;81.00;;;;;;5024771;28;20635;-73
2023/07/12 11:17:06;;;;;;;3.37;1.70;;;28.70;79.30;;;;;;5026211;28;20586;-73
2023/07/12 11:19:35;;;;;;;5.07;2.20;;;29.00;80.20;;;;;;5031447;28;20185;-73
2023/07/12 11:22:22;;;;;;;6.23;2.13;;;29.10;81.00;;;;;;5032937;28;20182;-75
2023/07/12 11:24:58;;;;;;;4.63;1.80;;;29.20;78.70;;;;;;5030385;28;20194;-73
2023/07/12 11:27:25;;;;;;;5.70;2.30;;;29.00;78.60;;;;;;5027960;28;20183;-74
2023/07/12 11:29:54;;;;;;;8.83;2.03;;;28.80;79.70;;;;;;5036291;28;20213;-73
2023/07/12 11:32:37;;;;;;;9.47;2.60;;;28.50;80.90;;;;;;5026693;28;20197;-74
2023/07/12 11:35:09;;;;;;;6.20;2.90;;;28.30;81.10;;;;;;5031335;28;20645;-74
2023/07/12 11:37:40;;;;;;;3.37;2.10;;;28.40;81.20;;;;;;5023701;28;20189;-75
2023/07/12 11:40:23;;;;;;;7.93;3.57;;;28.20;82.30;;;;;;5029747;28;20232;-74
2023/07/12 11:42:49;;;;;;;5.83;2.20;;;28.40;80.50;;;;;;5032459;28;20210;-74
2023/07/12 11:45:19;;;;;;;5.10;2.10;;;28.20;82.20;;;;;;5032912;28;20307;-73
2023/07/12 11:47:48;;;;;;;9.97;2.90;;;28.30;82.70;;;;;;5030436;28;20553;-73
2023/07/12 11:50:21;;;;;;;5.90;2.10;;;28.90;79.30;;;;;;5031548;28;20190;-73
2023/07/12 11:52:48;;;;;;;6.03;2.10;;;29.10;79.10;;;;;;5030129;28;20189;-74
2023/07/12 11:55:16;;;;;;;4.33;2.40;;;29.40;78.40;;;;;;5032499;28;20674;-72
2023/07/12 11:57:44;;;;;;;6.70;2.85;;;29.10;77.90;;;;;;5028117;28;20186;-73
2023/07/12 12:00:19;;;;;;;4.72;2.47;;;29.10;78.80;;;;;;5028230;28;20186;-72
2023/07/12 12:02:56;;;;;;;3.53;2.08;;;29.30;78.20;;;;;;5030542;28;20173;-73
2023/07/12 12:05:28;;;;;;;5.10;2.83;;;29.70;76.40;;;;;;5031465;28;20272;-74
2023/07/12 12:07:57;;;;;;;3.20;1.75;;;29.60;76.90;;;;;;5035220;28;20197;-73
2023/07/12 12:10:34;;;;;;;7.35;2.63;;;29.50;77.60;;;;;;5032893;28;20178;-72
2023/07/12 12:12:59;;;;;;;7.00;1.92;;;29.90;77.60;;;;;;5033333;28;20181;-73
2023/07/12 12:15:30;;;;;;;6.45;2.30;;;29.90;77.40;;;;;;5033822;28;20216;-72
2023/07/12 12:17:56;;;;;;;4.25;1.90;;;29.60;76.70;;;;;;5024592;28;20189;-73
2023/07/12 12:20:25;;;;;;;5.95;2.13;;;29.20;77.20;;;;;;5033304;28;20189;-74
2023/07/12 12:23:11;;;;;;;3.53;1.88;;;28.80;78.60;;;;;;5033399;28;20174;-72
2023/07/12 12:25:48;;;;;;;6.50;2.25;;;29.30;76.60;;;;;;5030483;28;20942;-73
2023/07/12 12:28:35;;;;;;;4.95;2.50;;;29.00;77.90;;;;;;5031484;28;20194;-73
2023/07/12 12:31:16;;;;;;;3.85;2.25;;;28.50;76.50;;;;;;5023841;28;20186;-73
2023/07/12 12:34:08;;;;;;;5.13;2.07;;;28.10;80.60;;;;;;5037380;28;20342;-73
2023/07/12 12:36:34;;;;;;;6.13;2.70;;;28.10;79.70;;;;;;5039010;28;20174;-73
2023/07/12 12:39:11;;;;;;;6.90;2.40;;;28.40;79.30;;;;;;5035185;28;20181;-73
2023/07/12 12:41:44;;;;;;;3.57;2.50;;;28.80;79.50;;;;;;5036245;28;20169;-74
2023/07/12 12:44:12;;;;;;;3.60;1.77;;;28.70;74.60;;;;;;5035370;28;20265;-74
2023/07/12 12:46:40;;;;;;;4.40;2.10;;;28.70;72.60;;;;;;5032075;28;20185;-73
2023/07/12 12:49:18;;;;;;;3.70;2.10;;;28.90;73.60;;;;;;5029169;28;20193;-72
2023/07/12 12:51:43;;;;;;;4.22;1.98;;;29.20;74.50;;;;;;5029241;28;20540;-74
2023/07/12 12:54:09;;;;;;;3.42;1.90;;;29.40;73.60;;;;;;5031862;28;20665;-73